sensor_id;sensor_type;location;lat;lon;timestamp;P1;durP1;ratioP1;P2;durP2;ratioP2
20417;SDS011;10368;51.436;6.774;2023-08-17T00:01:44;7.82;;;6.00;;
20417;SDS011;10368;51.436;6.774;2023-08-17T00:04:11;5.97;;;4.40;;
20417;SDS011;10368;51.436;6.774;2023-08-17T00:06:38;8.48;;;5.75;;
20417;SDS011;10368;51.436;6.774;2023-08-17T00:09:05;6.78;;;4.60;;
20417;SDS011;10368;51.436;6.774;2023-08-17T00:11:32;8.45;;;5.43;;
20417;SDS011;10368;51.436;6.774;2023-08-17T00:13:59;5.60;;;5.05;;
20417;SDS011;10368;51.436;6.774;2023-08-17T00:16:26;7.10;;;4.75;;
20417;SDS011;10368;51.436;6.774;2023-08-17T00:18:53;5.38;;;4.53;;
20417;SDS011;10368;51.436;6.774;2023-08-17T00:21:20;7.90;;;4.82;;
20417;SDS011;10368;51.436;6.774;2023-08-17T00:23:47;8.35;;;5.35;;
20417;SDS011;10368;51.436;6.774;2023-08-17T00:26:14;7.93;;;5.00;;
20417;SDS011;10368;51.436;6.774;2023-08-17T00:28:42;6.03;;;4.50;;
20417;SDS011;10368;51.436;6.774;2023-08-17T00:31:09;5.45;;;4.35;;
20417;SDS011;10368;51.436;6.774;2023-08-17T00:33:35;5.05;;;4.45;;
20417;SDS011;10368;51.436;6.774;2023-08-17T00:36:02;6.97;;;5.95;;
20417;SDS011;10368;51.436;6.774;2023-08-17T00:38:30;8.07;;;6.10;;
20417;SDS011;10368;51.436;6.774;2023-08-17T00:40:56;4.65;;;4.25;;
20417;SDS011;10368;51.436;6.774;2023-08-17T00:43:23;5.70;;;4.88;;
20417;SDS011;10368;51.436;6.774;2023-08-17T00:45:50;7.03;;;5.15;;
20417;SDS011;10368;51.436;6.774;2023-08-17T00:48:17;5.57;;;4.53;;
20417;SDS011;10368;51.436;6.774;2023-08-17T00:50:45;5.10;;;4.40;;
20417;SDS011;10368;51.436;6.774;2023-08-17T00:53:15;10.73;;;4.35;;
20417;SDS011;10368;51.436;6.774;2023-08-17T00:55:43;6.72;;;4.45;;
20417;SDS011;10368;51.436;6.774;2023-08-17T00:58:10;8.90;;;6.25;;
20417;SDS011;10368;51.436;6.774;2023-08-17T01:00:39;5.22;;;4.72;;
20417;SDS011;10368;51.436;6.774;2023-08-17T01:03:06;5.32;;;4.00;;
20417;SDS011;10368;51.436;6.774;2023-08-17T01:05:33;5.35;;;4.40;;
20417;SDS011;10368;51.436;6.774;2023-08-17T01:08:00;7.80;;;4.55;;
20417;SDS011;10368;51.436;6.774;2023-08-17T01:10:31;4.68;;;4.35;;
20417;SDS011;10368;51.436;6.774;2023-08-17T01:13:11;6.47;;;4.10;;
20417;SDS011;10368;51.436;6.774;2023-08-17T01:15:45;6.15;;;4.30;;
20417;SDS011;10368;51.436;6.774;2023-08-17T01:20:57;6.35;;;4.65;;
20417;SDS011;10368;51.436;6.774;2023-08-17T01:23:25;6.50;;;4.15;;
20417;SDS011;10368;51.436;6.774;2023-08-17T01:25:52;8.20;;;5.07;;
20417;SDS011;10368;51.436;6.774;2023-08-17T01:28:20;8.10;;;6.18;;
20417;SDS011;10368;51.436;6.774;2023-08-17T01:30:49;5.10;;;4.47;;
20417;SDS011;10368;51.436;6.774;2023-08-17T01:33:29;5.47;;;4.20;;
20417;SDS011;10368;51.436;6.774;2023-08-17T01:36:05;4.80;;;4.30;;
20417;SDS011;10368;51.436;6.774;2023-08-17T01:38:43;7.22;;;5.72;;
20417;SDS011;10368;51.436;6.774;2023-08-17T01:41:11;8.27;;;4.45;;
20417;SDS011;10368;51.436;6.774;2023-08-17T01:43:41;4.70;;;3.83;;
20417;SDS011;10368;51.436;6.774;2023-08-17T01:46:14;5.75;;;3.80;;
20417;SDS011;10368;51.436;6.774;2023-08-17T01:48:42;6.68;;;3.95;;
20417;SDS011;10368;51.436;6.774;2023-08-17T01:51:16;6.38;;;4.38;;
20417;SDS011;10368;51.436;6.774;2023-08-17T01:53:45;6.60;;;4.18;;
20417;SDS011;10368;51.436;6.774;2023-08-17T01:56:12;5.43;;;3.97;;
20417;SDS011;10368;51.436;6.774;2023-08-17T01:58:39;4.20;;;3.80;;
20417;SDS011;10368;51.436;6.774;2023-08-17T02:01:06;4.90;;;4.50;;
20417;SDS011;10368;51.436;6.774;2023-08-17T02:03:33;6.75;;;4.45;;
20417;SDS011;10368;51.436;6.774;2023-08-17T02:06:00;8.85;;;4.88;;
20417;SDS011;10368;51.436;6.774;2023-08-17T02:08:27;5.78;;;4.63;;
20417;SDS011;10368;51.436;6.774;2023-08-17T02:10:54;6.22;;;4.50;;
20417;SDS011;10368;51.436;6.774;2023-08-17T02:13:20;5.75;;;4.50;;
20417;SDS011;10368;51.436;6.774;2023-08-17T02:15:47;7.40;;;5.97;;
20417;SDS011;10368;51.436;6.774;2023-08-17T02:18:15;6.03;;;4.97;;
20417;SDS011;10368;51.436;6.774;2023-08-17T02:20:41;5.43;;;4.47;;
20417;SDS011;10368;51.436;6.774;2023-08-17T02:23:08;5.28;;;4.88;;
20417;SDS011;10368;51.436;6.774;2023-08-17T02:25:38;10.43;;;5.45;;
20417;SDS011;10368;51.436;6.774;2023-08-17T02:28:06;6.90;;;4.55;;
20417;SDS011;10368;51.436;6.774;2023-08-17T02:30:33;6.63;;;4.68;;
20417;SDS011;10368;51.436;6.774;2023-08-17T02:33:00;6.65;;;5.00;;
20417;SDS011;10368;51.436;6.774;2023-08-17T02:35:27;8.02;;;6.15;;
20417;SDS011;10368;51.436;6.774;2023-08-17T02:37:54;6.05;;;5.32;;
20417;SDS011;10368;51.436;6.774;2023-08-17T02:40:21;6.22;;;5.68;;
20417;SDS011;10368;51.436;6.774;2023-08-17T02:42:48;8.27;;;6.28;;
20417;SDS011;10368;51.436;6.774;2023-08-17T02:45:15;9.90;;;8.90;;
20417;SDS011;10368;51.436;6.774;2023-08-17T02:47:42;10.10;;;7.53;;
20417;SDS011;10368;51.436;6.774;2023-08-17T02:50:09;8.80;;;6.75;;
20417;SDS011;10368;51.436;6.774;2023-08-17T02:52:36;7.38;;;6.07;;
20417;SDS011;10368;51.436;6.774;2023-08-17T02:55:03;7.53;;;5.95;;
20417;SDS011;10368;51.436;6.774;2023-08-17T02:57:30;8.93;;;6.32;;
20417;SDS011;10368;51.436;6.774;2023-08-17T02:59:57;8.35;;;4.75;;
20417;SDS011;10368;51.436;6.774;2023-08-17T03:02:23;9.85;;;7.47;;
20417;SDS011;10368;51.436;6.774;2023-08-17T03:04:51;7.88;;;6.00;;
20417;SDS011;10368;51.436;6.774;2023-08-17T03:07:17;5.28;;;4.78;;
20417;SDS011;10368;51.436;6.774;2023-08-17T03:09:44;6.40;;;4.82;;
20417;SDS011;10368;51.436;6.774;2023-08-17T03:12:11;8.10;;;5.72;;
20417;SDS011;10368;51.436;6.774;2023-08-17T03:14:38;6.07;;;5.47;;
20417;SDS011;10368;51.436;6.774;2023-08-17T03:17:05;5.82;;;5.25;;
20417;SDS011;10368;51.436;6.774;2023-08-17T03:19:32;5.40;;;4.90;;
20417;SDS011;10368;51.436;6.774;2023-08-17T03:21:58;8.73;;;6.50;;
20417;SDS011;10368;51.436;6.774;2023-08-17T03:24:25;5.65;;;5.15;;
20417;SDS011;10368;51.436;6.774;2023-08-17T03:26:52;6.00;;;5.30;;
20417;SDS011;10368;51.436;6.774;2023-08-17T03:29:19;7.97;;;5.35;;
20417;SDS011;10368;51.436;6.774;2023-08-17T03:31:46;5.95;;;4.88;;
20417;SDS011;10368;51.436;6.774;2023-08-17T03:34:12;8.50;;;5.30;;
20417;SDS011;10368;51.436;6.774;2023-08-17T03:36:39;14.38;;;11.32;;
20417;SDS011;10368;51.436;6.774;2023-08-17T03:39:06;6.85;;;4.90;;
20417;SDS011;10368;51.436;6.774;2023-08-17T03:41:33;5.68;;;4.60;;
20417;SDS011;10368;51.436;6.774;2023-08-17T03:44:03;11.57;;;10.43;;
20417;SDS011;10368;51.436;6.774;2023-08-17T03:46:32;7.15;;;5.05;;
20417;SDS011;10368;51.436;6.774;2023-08-17T03:48:59;7.65;;;6.35;;
20417;SDS011;10368;51.436;6.774;2023-08-17T03:51:26;6.32;;;4.88;;
20417;SDS011;10368;51.436;6.774;2023-08-17T03:53:53;5.60;;;5.18;;
20417;SDS011;10368;51.436;6.774;2023-08-17T03:56:20;5.47;;;4.72;;
20417;SDS011;10368;51.436;6.774;2023-08-17T03:58:47;5.75;;;5.22;;
20417;SDS011;10368;51.436;6.774;2023-08-17T04:01:14;9.07;;;5.20;;
20417;SDS011;10368;51.436;6.774;2023-08-17T04:03:41;5.80;;;5.28;;
20417;SDS011;10368;51.436;6.774;2023-08-17T04:06:08;7.72;;;5.20;;
20417;SDS011;10368;51.436;6.774;2023-08-17T04:08:36;6.53;;;4.68;;
20417;SDS011;10368;51.436;6.774;2023-08-17T04:11:04;8.38;;;4.90;;
20417;SDS011;10368;51.436;6.774;2023-08-17T04:13:31;9.13;;;5.03;;
20417;SDS011;10368;51.436;6.774;2023-08-17T04:15:58;8.60;;;5.65;;
20417;SDS011;10368;51.436;6.774;2023-08-17T04:18:26;6.00;;;4.05;;
20417;SDS011;10368;51.436;6.774;2023-08-17T04:20:52;8.77;;;6.00;;
20417;SDS011;10368;51.436;6.774;2023-08-17T04:23:20;5.00;;;4.00;;
20417;SDS011;10368;51.436;6.774;2023-08-17T04:25:47;9.75;;;5.25;;
20417;SDS011;10368;51.436;6.774;2023-08-17T04:28:14;5.20;;;4.22;;
20417;SDS011;10368;51.436;6.774;2023-08-17T04:30:42;10.73;;;5.28;;
20417;SDS011;10368;51.436;6.774;2023-08-17T04:33:09;8.13;;;4.15;;
20417;SDS011;10368;51.436;6.774;2023-08-17T04:35:36;4.57;;;4.15;;
20417;SDS011;10368;51.436;6.774;2023-08-17T04:38:03;4.20;;;3.80;;
20417;SDS011;10368;51.436;6.774;2023-08-17T04:40:30;5.05;;;4.35;;
20417;SDS011;10368;51.436;6.774;2023-08-17T04:42:58;7.22;;;4.32;;
20417;SDS011;10368;51.436;6.774;2023-08-17T04:45:25;6.35;;;4.55;;
20417;SDS011;10368;51.436;6.774;2023-08-17T04:47:52;5.75;;;4.18;;
20417;SDS011;10368;51.436;6.774;2023-08-17T04:50:19;5.80;;;4.45;;
20417;SDS011;10368;51.436;6.774;2023-08-17T04:52:45;5.13;;;4.30;;
20417;SDS011;10368;51.436;6.774;2023-08-17T04:55:13;6.72;;;4.38;;
20417;SDS011;10368;51.436;6.774;2023-08-17T04:57:40;7.80;;;5.20;;
20417;SDS011;10368;51.436;6.774;2023-08-17T05:00:07;10.70;;;4.80;;
20417;SDS011;10368;51.436;6.774;2023-08-17T05:02:37;8.00;;;4.32;;
20417;SDS011;10368;51.436;6.774;2023-08-17T05:05:04;4.63;;;4.20;;
20417;SDS011;10368;51.436;6.774;2023-08-17T05:07:33;9.07;;;5.18;;
20417;SDS011;10368;51.436;6.774;2023-08-17T05:10:00;8.38;;;4.63;;
20417;SDS011;10368;51.436;6.774;2023-08-17T05:12:28;6.25;;;4.35;;
20417;SDS011;10368;51.436;6.774;2023-08-17T05:14:54;4.57;;;4.00;;
20417;SDS011;10368;51.436;6.774;2023-08-17T05:17:21;6.97;;;5.10;;
20417;SDS011;10368;51.436;6.774;2023-08-17T05:19:48;6.82;;;3.85;;
20417;SDS011;10368;51.436;6.774;2023-08-17T05:22:16;7.53;;;4.55;;
20417;SDS011;10368;51.436;6.774;2023-08-17T05:24:42;15.70;;;7.57;;
20417;SDS011;10368;51.436;6.774;2023-08-17T05:27:09;6.57;;;4.07;;
20417;SDS011;10368;51.436;6.774;2023-08-17T05:29:36;6.78;;;4.57;;
20417;SDS011;10368;51.436;6.774;2023-08-17T05:32:03;5.30;;;4.13;;
20417;SDS011;10368;51.436;6.774;2023-08-17T05:34:30;6.50;;;4.65;;
20417;SDS011;10368;51.436;6.774;2023-08-17T05:36:57;5.32;;;4.40;;
20417;SDS011;10368;51.436;6.774;2023-08-17T05:39:24;4.22;;;3.70;;
20417;SDS011;10368;51.436;6.774;2023-08-17T05:41:51;7.90;;;4.65;;
20417;SDS011;10368;51.436;6.774;2023-08-17T05:44:18;7.32;;;4.65;;
20417;SDS011;10368;51.436;6.774;2023-08-17T05:46:45;8.90;;;5.30;;
20417;SDS011;10368;51.436;6.774;2023-08-17T05:49:12;5.85;;;3.97;;
20417;SDS011;10368;51.436;6.774;2023-08-17T05:51:38;9.32;;;4.53;;
20417;SDS011;10368;51.436;6.774;2023-08-17T05:54:05;8.65;;;4.85;;
20417;SDS011;10368;51.436;6.774;2023-08-17T05:56:33;5.22;;;4.72;;
20417;SDS011;10368;51.436;6.774;2023-08-17T05:59:00;7.25;;;4.85;;
20417;SDS011;10368;51.436;6.774;2023-08-17T06:01:27;11.13;;;5.18;;
20417;SDS011;10368;51.436;6.774;2023-08-17T06:03:54;5.40;;;4.63;;
20417;SDS011;10368;51.436;6.774;2023-08-17T06:06:21;5.93;;;5.32;;
20417;SDS011;10368;51.436;6.774;2023-08-17T06:08:47;10.02;;;5.45;;
20417;SDS011;10368;51.436;6.774;2023-08-17T06:11:14;7.45;;;6.28;;
20417;SDS011;10368;51.436;6.774;2023-08-17T06:13:41;7.72;;;6.15;;
20417;SDS011;10368;51.436;6.774;2023-08-17T06:16:08;8.40;;;6.00;;
20417;SDS011;10368;51.436;6.774;2023-08-17T06:18:36;8.15;;;6.25;;
20417;SDS011;10368;51.436;6.774;2023-08-17T06:21:03;13.57;;;6.03;;
20417;SDS011;10368;51.436;6.774;2023-08-17T06:23:30;10.02;;;6.47;;
20417;SDS011;10368;51.436;6.774;2023-08-17T06:25:57;7.80;;;6.03;;
20417;SDS011;10368;51.436;6.774;2023-08-17T06:28:25;8.65;;;6.90;;
20417;SDS011;10368;51.436;6.774;2023-08-17T06:30:54;8.77;;;6.45;;
20417;SDS011;10368;51.436;6.774;2023-08-17T06:33:21;161.90;;;48.92;;
20417;SDS011;10368;51.436;6.774;2023-08-17T06:35:49;14.45;;;8.27;;
20417;SDS011;10368;51.436;6.774;2023-08-17T06:38:16;8.73;;;6.80;;
20417;SDS011;10368;51.436;6.774;2023-08-17T06:40:43;15.70;;;8.65;;
20417;SDS011;10368;51.436;6.774;2023-08-17T06:43:11;9.75;;;5.75;;
20417;SDS011;10368;51.436;6.774;2023-08-17T06:45:38;7.97;;;6.28;;
20417;SDS011;10368;51.436;6.774;2023-08-17T06:48:05;9.98;;;8.15;;
20417;SDS011;10368;51.436;6.774;2023-08-17T06:50:32;11.27;;;10.18;;
20417;SDS011;10368;51.436;6.774;2023-08-17T06:53:00;16.42;;;11.48;;
20417;SDS011;10368;51.436;6.774;2023-08-17T06:55:27;10.65;;;9.52;;
20417;SDS011;10368;51.436;6.774;2023-08-17T06:57:54;11.27;;;10.10;;
20417;SDS011;10368;51.436;6.774;2023-08-17T07:00:23;14.15;;;10.23;;
20417;SDS011;10368;51.436;6.774;2023-08-17T07:02:50;14.93;;;10.07;;
20417;SDS011;10368;51.436;6.774;2023-08-17T07:05:21;12.88;;;10.65;;
20417;SDS011;10368;51.436;6.774;2023-08-17T07:07:48;12.73;;;11.48;;
20417;SDS011;10368;51.436;6.774;2023-08-17T07:10:15;12.40;;;10.88;;
20417;SDS011;10368;51.436;6.774;2023-08-17T07:12:42;16.25;;;14.32;;
20417;SDS011;10368;51.436;6.774;2023-08-17T07:15:09;16.98;;;15.25;;
20417;SDS011;10368;51.436;6.774;2023-08-17T07:17:36;15.85;;;14.10;;
20417;SDS011;10368;51.436;6.774;2023-08-17T07:20:04;18.98;;;15.02;;
20417;SDS011;10368;51.436;6.774;2023-08-17T07:22:42;19.65;;;14.75;;
20417;SDS011;10368;51.436;6.774;2023-08-17T07:25:09;20.35;;;15.90;;
20417;SDS011;10368;51.436;6.774;2023-08-17T07:27:36;21.98;;;16.02;;
20417;SDS011;10368;51.436;6.774;2023-08-17T07:30:03;17.73;;;13.95;;
20417;SDS011;10368;51.436;6.774;2023-08-17T07:32:30;16.55;;;14.70;;
20417;SDS011;10368;51.436;6.774;2023-08-17T07:34:58;20.65;;;14.60;;
20417;SDS011;10368;51.436;6.774;2023-08-17T07:37:25;15.80;;;14.30;;
20417;SDS011;10368;51.436;6.774;2023-08-17T07:39:59;27.52;;;18.02;;
20417;SDS011;10368;51.436;6.774;2023-08-17T07:42:26;14.10;;;12.65;;
20417;SDS011;10368;51.436;6.774;2023-08-17T07:44:53;26.02;;;19.95;;
20417;SDS011;10368;51.436;6.774;2023-08-17T07:47:20;16.38;;;14.25;;
20417;SDS011;10368;51.436;6.774;2023-08-17T07:49:47;19.30;;;14.88;;
20417;SDS011;10368;51.436;6.774;2023-08-17T07:52:15;20.02;;;17.05;;
20417;SDS011;10368;51.436;6.774;2023-08-17T07:54:45;22.70;;;16.13;;
20417;SDS011;10368;51.436;6.774;2023-08-17T07:57:12;17.30;;;15.57;;
20417;SDS011;10368;51.436;6.774;2023-08-17T07:59:39;17.17;;;14.05;;
20417;SDS011;10368;51.436;6.774;2023-08-17T08:02:06;17.73;;;15.60;;
20417;SDS011;10368;51.436;6.774;2023-08-17T08:04:33;17.35;;;15.60;;
20417;SDS011;10368;51.436;6.774;2023-08-17T08:07:00;20.33;;;16.42;;
20417;SDS011;10368;51.436;6.774;2023-08-17T08:09:26;16.50;;;14.85;;
20417;SDS011;10368;51.436;6.774;2023-08-17T08:11:53;21.25;;;16.63;;
20417;SDS011;10368;51.436;6.774;2023-08-17T08:14:20;28.50;;;19.73;;
20417;SDS011;10368;51.436;6.774;2023-08-17T08:16:47;20.77;;;18.67;;
20417;SDS011;10368;51.436;6.774;2023-08-17T08:19:14;26.77;;;20.83;;
20417;SDS011;10368;51.436;6.774;2023-08-17T08:21:41;25.50;;;22.27;;
20417;SDS011;10368;51.436;6.774;2023-08-17T08:24:08;26.60;;;21.73;;
20417;SDS011;10368;51.436;6.774;2023-08-17T08:26:47;25.70;;;22.13;;
20417;SDS011;10368;51.436;6.774;2023-08-17T08:29:14;24.70;;;21.58;;
20417;SDS011;10368;51.436;6.774;2023-08-17T08:31:41;23.67;;;20.15;;
20417;SDS011;10368;51.436;6.774;2023-08-17T08:34:08;27.80;;;23.23;;
20417;SDS011;10368;51.436;6.774;2023-08-17T08:36:35;24.23;;;21.63;;
20417;SDS011;10368;51.436;6.774;2023-08-17T08:39:02;25.08;;;22.45;;
20417;SDS011;10368;51.436;6.774;2023-08-17T08:41:29;30.67;;;23.08;;
20417;SDS011;10368;51.436;6.774;2023-08-17T08:43:56;27.67;;;23.75;;
20417;SDS011;10368;51.436;6.774;2023-08-17T08:46:24;39.90;;;27.85;;
20417;SDS011;10368;51.436;6.774;2023-08-17T08:48:56;30.13;;;25.15;;
20417;SDS011;10368;51.436;6.774;2023-08-17T08:51:25;29.38;;;24.55;;
20417;SDS011;10368;51.436;6.774;2023-08-17T08:54:00;38.22;;;27.55;;
20417;SDS011;10368;51.436;6.774;2023-08-17T08:56:31;37.53;;;28.85;;
20417;SDS011;10368;51.436;6.774;2023-08-17T08:59:01;29.88;;;26.73;;
20417;SDS011;10368;51.436;6.774;2023-08-17T09:01:30;38.95;;;26.45;;
20417;SDS011;10368;51.436;6.774;2023-08-17T09:03:58;34.00;;;26.70;;
20417;SDS011;10368;51.436;6.774;2023-08-17T09:06:29;35.97;;;29.30;;
20417;SDS011;10368;51.436;6.774;2023-08-17T09:08:57;31.80;;;27.10;;
20417;SDS011;10368;51.436;6.774;2023-08-17T09:11:26;25.40;;;22.70;;
20417;SDS011;10368;51.436;6.774;2023-08-17T09:13:53;27.92;;;25.02;;
20417;SDS011;10368;51.436;6.774;2023-08-17T09:16:21;29.90;;;26.73;;
20417;SDS011;10368;51.436;6.774;2023-08-17T09:18:52;28.80;;;25.00;;
20417;SDS011;10368;51.436;6.774;2023-08-17T09:21:20;29.17;;;24.98;;
20417;SDS011;10368;51.436;6.774;2023-08-17T09:23:52;27.92;;;25.00;;
20417;SDS011;10368;51.436;6.774;2023-08-17T09:26:24;31.35;;;25.55;;
20417;SDS011;10368;51.436;6.774;2023-08-17T09:28:51;28.83;;;25.63;;
20417;SDS011;10368;51.436;6.774;2023-08-17T09:31:23;32.00;;;27.55;;
20417;SDS011;10368;51.436;6.774;2023-08-17T09:33:51;29.65;;;26.52;;
20417;SDS011;10368;51.436;6.774;2023-08-17T09:36:22;30.60;;;27.33;;
20417;SDS011;10368;51.436;6.774;2023-08-17T09:38:52;32.78;;;26.52;;
20417;SDS011;10368;51.436;6.774;2023-08-17T09:41:20;33.83;;;26.95;;
20417;SDS011;10368;51.436;6.774;2023-08-17T09:43:53;28.30;;;25.15;;
20417;SDS011;10368;51.436;6.774;2023-08-17T09:46:21;31.33;;;26.77;;
20417;SDS011;10368;51.436;6.774;2023-08-17T09:48:48;29.25;;;25.55;;
20417;SDS011;10368;51.436;6.774;2023-08-17T09:51:15;28.98;;;25.98;;
20417;SDS011;10368;51.436;6.774;2023-08-17T09:53:43;29.20;;;25.88;;
20417;SDS011;10368;51.436;6.774;2023-08-17T09:56:09;32.20;;;26.42;;
20417;SDS011;10368;51.436;6.774;2023-08-17T09:58:41;30.85;;;27.40;;
20417;SDS011;10368;51.436;6.774;2023-08-17T10:01:08;29.45;;;26.27;;
20417;SDS011;10368;51.436;6.774;2023-08-17T10:03:36;34.28;;;28.63;;
20417;SDS011;10368;51.436;6.774;2023-08-17T10:06:09;42.85;;;31.73;;
20417;SDS011;10368;51.436;6.774;2023-08-17T10:08:47;35.13;;;30.75;;
20417;SDS011;10368;51.436;6.774;2023-08-17T10:11:19;38.08;;;32.47;;
20417;SDS011;10368;51.436;6.774;2023-08-17T10:13:51;36.05;;;29.88;;
20417;SDS011;10368;51.436;6.774;2023-08-17T10:21:31;34.17;;;28.80;;
20417;SDS011;10368;51.436;6.774;2023-08-17T10:24:11;29.60;;;26.65;;
20417;SDS011;10368;51.436;6.774;2023-08-17T10:26:38;34.13;;;27.77;;
20417;SDS011;10368;51.436;6.774;2023-08-17T10:29:07;30.95;;;27.55;;
20417;SDS011;10368;51.436;6.774;2023-08-17T10:31:43;29.73;;;26.60;;
20417;SDS011;10368;51.436;6.774;2023-08-17T10:34:13;35.72;;;29.50;;
20417;SDS011;10368;51.436;6.774;2023-08-17T10:36:41;28.80;;;25.80;;
20417;SDS011;10368;51.436;6.774;2023-08-17T10:41:46;29.50;;;26.40;;
20417;SDS011;10368;51.436;6.774;2023-08-17T10:47:18;26.17;;;23.73;;
20417;SDS011;10368;51.436;6.774;2023-08-17T10:49:55;26.63;;;24.00;;
20417;SDS011;10368;51.436;6.774;2023-08-17T10:55:06;27.33;;;24.58;;
20417;SDS011;10368;51.436;6.774;2023-08-17T11:08:27;28.25;;;23.60;;
20417;SDS011;10368;51.436;6.774;2023-08-17T11:11:09;26.60;;;23.77;;
20417;SDS011;10368;51.436;6.774;2023-08-17T11:13:38;26.58;;;23.75;;
20417;SDS011;10368;51.436;6.774;2023-08-17T11:16:07;29.13;;;24.20;;
20417;SDS011;10368;51.436;6.774;2023-08-17T11:18:35;29.35;;;25.38;;
20417;SDS011;10368;51.436;6.774;2023-08-17T11:21:03;31.13;;;27.98;;
20417;SDS011;10368;51.436;6.774;2023-08-17T11:23:33;27.55;;;24.65;;
20417;SDS011;10368;51.436;6.774;2023-08-17T11:26:01;24.90;;;22.48;;
20417;SDS011;10368;51.436;6.774;2023-08-17T11:28:31;26.13;;;23.65;;
20417;SDS011;10368;51.436;6.774;2023-08-17T11:31:11;24.80;;;22.48;;
20417;SDS011;10368;51.436;6.774;2023-08-17T11:33:40;27.05;;;24.20;;
20417;SDS011;10368;51.436;6.774;2023-08-17T11:36:08;26.73;;;24.10;;
20417;SDS011;10368;51.436;6.774;2023-08-17T11:38:40;24.70;;;22.15;;
20417;SDS011;10368;51.436;6.774;2023-08-17T11:41:08;22.65;;;20.33;;
20417;SDS011;10368;51.436;6.774;2023-08-17T11:43:43;23.15;;;21.08;;
20417;SDS011;10368;51.436;6.774;2023-08-17T11:46:11;22.60;;;20.58;;
20417;SDS011;10368;51.436;6.774;2023-08-17T11:48:39;26.58;;;22.35;;
20417;SDS011;10368;51.436;6.774;2023-08-17T11:51:06;32.47;;;29.02;;
20417;SDS011;10368;51.436;6.774;2023-08-17T11:53:36;24.13;;;20.23;;
20417;SDS011;10368;51.436;6.774;2023-08-17T11:56:05;24.50;;;21.35;;
20417;SDS011;10368;51.436;6.774;2023-08-17T11:58:45;24.60;;;22.17;;
20417;SDS011;10368;51.436;6.774;2023-08-17T12:01:13;23.90;;;21.48;;
20417;SDS011;10368;51.436;6.774;2023-08-17T12:03:43;23.55;;;21.35;;
20417;SDS011;10368;51.436;6.774;2023-08-17T12:06:10;26.48;;;23.98;;
20417;SDS011;10368;51.436;6.774;2023-08-17T12:08:42;24.42;;;21.98;;
20417;SDS011;10368;51.436;6.774;2023-08-17T12:11:15;24.20;;;20.35;;
20417;SDS011;10368;51.436;6.774;2023-08-17T12:13:48;22.05;;;19.80;;
20417;SDS011;10368;51.436;6.774;2023-08-17T12:16:16;27.15;;;21.38;;
20417;SDS011;10368;51.436;6.774;2023-08-17T12:18:45;23.42;;;21.00;;
20417;SDS011;10368;51.436;6.774;2023-08-17T12:21:19;22.33;;;20.25;;
20417;SDS011;10368;51.436;6.774;2023-08-17T12:23:49;21.77;;;19.77;;
20417;SDS011;10368;51.436;6.774;2023-08-17T12:26:22;21.58;;;19.42;;
20417;SDS011;10368;51.436;6.774;2023-08-17T12:28:49;25.58;;;21.52;;
20417;SDS011;10368;51.436;6.774;2023-08-17T12:31:20;24.13;;;21.67;;
20417;SDS011;10368;51.436;6.774;2023-08-17T12:33:49;25.60;;;22.92;;
20417;SDS011;10368;51.436;6.774;2023-08-17T12:36:17;23.90;;;21.83;;
20417;SDS011;10368;51.436;6.774;2023-08-17T12:38:45;24.00;;;21.52;;
20417;SDS011;10368;51.436;6.774;2023-08-17T12:41:14;24.33;;;22.25;;
20417;SDS011;10368;51.436;6.774;2023-08-17T12:43:42;25.95;;;23.58;;
20417;SDS011;10368;51.436;6.774;2023-08-17T12:46:09;26.83;;;24.20;;
20417;SDS011;10368;51.436;6.774;2023-08-17T12:48:37;27.98;;;25.27;;
20417;SDS011;10368;51.436;6.774;2023-08-17T12:51:04;27.27;;;24.77;;
20417;SDS011;10368;51.436;6.774;2023-08-17T12:53:31;28.75;;;26.05;;
20417;SDS011;10368;51.436;6.774;2023-08-17T12:55:58;26.23;;;23.63;;
20417;SDS011;10368;51.436;6.774;2023-08-17T12:58:25;38.47;;;34.38;;
20417;SDS011;10368;51.436;6.774;2023-08-17T13:00:52;26.10;;;23.50;;
20417;SDS011;10368;51.436;6.774;2023-08-17T13:03:21;26.58;;;23.67;;
20417;SDS011;10368;51.436;6.774;2023-08-17T13:05:48;26.58;;;23.98;;
20417;SDS011;10368;51.436;6.774;2023-08-17T13:08:15;24.88;;;21.38;;
20417;SDS011;10368;51.436;6.774;2023-08-17T13:10:42;27.50;;;24.60;;
20417;SDS011;10368;51.436;6.774;2023-08-17T13:13:09;23.13;;;20.73;;
20417;SDS011;10368;51.436;6.774;2023-08-17T13:15:35;23.40;;;20.92;;
20417;SDS011;10368;51.436;6.774;2023-08-17T13:18:02;24.95;;;22.40;;
20417;SDS011;10368;51.436;6.774;2023-08-17T13:20:29;25.63;;;22.70;;
20417;SDS011;10368;51.436;6.774;2023-08-17T13:22:56;23.48;;;21.10;;
20417;SDS011;10368;51.436;6.774;2023-08-17T13:25:23;23.27;;;20.80;;
20417;SDS011;10368;51.436;6.774;2023-08-17T13:27:51;26.83;;;20.00;;
20417;SDS011;10368;51.436;6.774;2023-08-17T13:30:18;26.65;;;22.15;;
20417;SDS011;10368;51.436;6.774;2023-08-17T13:32:44;25.80;;;21.75;;
20417;SDS011;10368;51.436;6.774;2023-08-17T13:35:13;30.52;;;22.02;;
20417;SDS011;10368;51.436;6.774;2023-08-17T13:37:40;24.95;;;21.90;;
20417;SDS011;10368;51.436;6.774;2023-08-17T13:40:07;26.73;;;22.67;;
20417;SDS011;10368;51.436;6.774;2023-08-17T13:42:35;24.55;;;21.88;;
20417;SDS011;10368;51.436;6.774;2023-08-17T13:45:03;27.02;;;23.38;;
20417;SDS011;10368;51.436;6.774;2023-08-17T13:47:30;26.23;;;22.35;;
20417;SDS011;10368;51.436;6.774;2023-08-17T13:49:57;24.17;;;20.20;;
20417;SDS011;10368;51.436;6.774;2023-08-17T13:52:24;22.58;;;20.15;;
20417;SDS011;10368;51.436;6.774;2023-08-17T13:54:52;23.02;;;20.77;;
20417;SDS011;10368;51.436;6.774;2023-08-17T13:57:19;21.10;;;18.98;;
20417;SDS011;10368;51.436;6.774;2023-08-17T13:59:45;25.02;;;20.45;;
20417;SDS011;10368;51.436;6.774;2023-08-17T14:02:12;22.02;;;19.70;;
20417;SDS011;10368;51.436;6.774;2023-08-17T14:04:39;25.23;;;20.48;;
20417;SDS011;10368;51.436;6.774;2023-08-17T14:07:06;21.90;;;19.10;;
20417;SDS011;10368;51.436;6.774;2023-08-17T14:09:33;23.33;;;20.83;;
20417;SDS011;10368;51.436;6.774;2023-08-17T14:12:00;23.45;;;20.83;;
20417;SDS011;10368;51.436;6.774;2023-08-17T14:14:28;21.52;;;19.35;;
20417;SDS011;10368;51.436;6.774;2023-08-17T14:16:54;26.73;;;20.45;;
20417;SDS011;10368;51.436;6.774;2023-08-17T14:19:21;23.63;;;20.23;;
20417;SDS011;10368;51.436;6.774;2023-08-17T14:21:48;22.42;;;19.77;;
20417;SDS011;10368;51.436;6.774;2023-08-17T14:24:15;29.55;;;20.90;;
20417;SDS011;10368;51.436;6.774;2023-08-17T14:26:42;23.98;;;21.35;;
20417;SDS011;10368;51.436;6.774;2023-08-17T14:29:09;26.08;;;20.98;;
20417;SDS011;10368;51.436;6.774;2023-08-17T14:31:36;22.33;;;19.23;;
20417;SDS011;10368;51.436;6.774;2023-08-17T14:34:03;22.30;;;19.42;;
20417;SDS011;10368;51.436;6.774;2023-08-17T14:36:32;28.35;;;20.08;;
20417;SDS011;10368;51.436;6.774;2023-08-17T14:38:59;20.25;;;18.17;;
20417;SDS011;10368;51.436;6.774;2023-08-17T14:41:26;21.80;;;19.65;;
20417;SDS011;10368;51.436;6.774;2023-08-17T14:44:00;20.80;;;18.85;;
20417;SDS011;10368;51.436;6.774;2023-08-17T14:46:28;17.00;;;15.20;;
20417;SDS011;10368;51.436;6.774;2023-08-17T14:48:56;19.23;;;17.38;;
20417;SDS011;10368;51.436;6.774;2023-08-17T14:51:24;19.48;;;16.45;;
20417;SDS011;10368;51.436;6.774;2023-08-17T14:53:56;19.05;;;15.95;;
20417;SDS011;10368;51.436;6.774;2023-08-17T14:56:23;18.77;;;15.82;;
20417;SDS011;10368;51.436;6.774;2023-08-17T14:58:50;17.67;;;15.98;;
20417;SDS011;10368;51.436;6.774;2023-08-17T15:01:17;17.05;;;15.52;;
20417;SDS011;10368;51.436;6.774;2023-08-17T15:03:44;16.85;;;14.98;;
20417;SDS011;10368;51.436;6.774;2023-08-17T15:06:12;22.00;;;14.93;;